Saint Joseph, Illinois
Current Conditions -  °F | °C
As of 8:01 AM on Saturday 25 Oct 2014 (Local Time) from KCMI Reporting Station
Haze Haze  
Wind Chill: 51°   Ceiling: Unl
Heat Index: 51°   Visibility: 3mi
Dew Point: 50°   Wind: 5mph
Humidity: 96%   Direction: 270°W
Pressure: 29.99"   Gusts: NA
Location:  40.11°N, 88.04°W
Report Text: KCMI 251301Z 27004KT 3SM BR CLR 11/10 A2999 RMK AO2 TWR VIS 4 T01060100 $
Loading
Personal Weather Stations






























Interactive Weather Map
Tropical Storm Tracking
New forecast layout! Learn more

10-Day Weather Forecast

Advertisements
Track Severe Weather on mobile